sensor_id;sensor_type;location;lat;lon;timestamp;P1;durP1;ratioP1;P2;durP2;ratioP2
39898;SDS011;25571;47.876;10.642;2023-04-04T00:00:28;4.00;;;2.15;;
39898;SDS011;25571;47.876;10.642;2023-04-04T00:02:54;3.22;;;2.05;;
39898;SDS011;25571;47.876;10.642;2023-04-04T00:05:20;3.72;;;2.15;;
39898;SDS011;25571;47.876;10.642;2023-04-04T00:07:46;3.15;;;2.30;;
39898;SDS011;25571;47.876;10.642;2023-04-04T00:10:11;2.40;;;2.17;;
39898;SDS011;25571;47.876;10.642;2023-04-04T00:12:37;3.40;;;2.13;;
39898;SDS011;25571;47.876;10.642;2023-04-04T00:15:03;3.65;;;1.90;;
39898;SDS011;25571;47.876;10.642;2023-04-04T00:17:29;2.15;;;1.95;;
39898;SDS011;25571;47.876;10.642;2023-04-04T00:19:54;3.05;;;2.20;;
39898;SDS011;25571;47.876;10.642;2023-04-04T00:22:21;2.25;;;1.80;;
39898;SDS011;25571;47.876;10.642;2023-04-04T00:24:47;4.95;;;2.60;;
39898;SDS011;25571;47.876;10.642;2023-04-04T00:27:13;2.85;;;2.15;;
39898;SDS011;25571;47.876;10.642;2023-04-04T00:29:39;4.60;;;2.20;;
39898;SDS011;25571;47.876;10.642;2023-04-04T00:32:05;3.50;;;2.20;;
39898;SDS011;25571;47.876;10.642;2023-04-04T00:34:31;5.30;;;2.50;;
39898;SDS011;25571;47.876;10.642;2023-04-04T00:36:56;2.63;;;2.33;;
39898;SDS011;25571;47.876;10.642;2023-04-04T00:39:22;3.08;;;2.50;;
39898;SDS011;25571;47.876;10.642;2023-04-04T00:41:50;4.00;;;2.47;;
39898;SDS011;25571;47.876;10.642;2023-04-04T00:44:16;3.40;;;2.70;;
39898;SDS011;25571;47.876;10.642;2023-04-04T00:46:42;3.00;;;2.22;;
39898;SDS011;25571;47.876;10.642;2023-04-04T00:49:08;3.28;;;2.40;;
39898;SDS011;25571;47.876;10.642;2023-04-04T00:51:33;4.57;;;2.60;;
39898;SDS011;25571;47.876;10.642;2023-04-04T00:53:59;2.60;;;2.17;;
39898;SDS011;25571;47.876;10.642;2023-04-04T00:56:26;4.43;;;2.42;;
39898;SDS011;25571;47.876;10.642;2023-04-04T00:58:53;5.28;;;2.47;;
39898;SDS011;25571;47.876;10.642;2023-04-04T01:01:19;3.75;;;2.42;;
39898;SDS011;25571;47.876;10.642;2023-04-04T01:03:45;2.70;;;2.42;;
39898;SDS011;25571;47.876;10.642;2023-04-04T01:06:11;3.25;;;2.47;;
39898;SDS011;25571;47.876;10.642;2023-04-04T01:08:38;3.75;;;2.47;;
39898;SDS011;25571;47.876;10.642;2023-04-04T01:11:04;3.25;;;2.50;;
39898;SDS011;25571;47.876;10.642;2023-04-04T01:13:30;3.28;;;2.42;;
39898;SDS011;25571;47.876;10.642;2023-04-04T01:15:57;3.70;;;2.47;;
39898;SDS011;25571;47.876;10.642;2023-04-04T01:18:23;3.67;;;2.30;;
39898;SDS011;25571;47.876;10.642;2023-04-04T01:20:51;4.55;;;2.47;;
39898;SDS011;25571;47.876;10.642;2023-04-04T01:23:18;3.28;;;2.42;;
39898;SDS011;25571;47.876;10.642;2023-04-04T01:25:48;4.30;;;2.72;;
39898;SDS011;25571;47.876;10.642;2023-04-04T01:28:13;4.90;;;2.70;;
39898;SDS011;25571;47.876;10.642;2023-04-04T01:30:39;4.00;;;2.65;;
39898;SDS011;25571;47.876;10.642;2023-04-04T01:33:12;2.75;;;2.13;;
39898;SDS011;25571;47.876;10.642;2023-04-04T01:41:13;4.82;;;2.53;;
39898;SDS011;25571;47.876;10.642;2023-04-04T01:43:42;4.45;;;2.53;;
39898;SDS011;25571;47.876;10.642;2023-04-04T01:46:09;3.55;;;2.58;;
39898;SDS011;25571;47.876;10.642;2023-04-04T01:48:35;4.07;;;2.85;;
39898;SDS011;25571;47.876;10.642;2023-04-04T01:51:00;4.35;;;2.63;;
39898;SDS011;25571;47.876;10.642;2023-04-04T01:53:26;7.20;;;2.80;;
39898;SDS011;25571;47.876;10.642;2023-04-04T01:55:52;3.88;;;2.65;;
39898;SDS011;25571;47.876;10.642;2023-04-04T01:58:18;4.13;;;3.25;;
39898;SDS011;25571;47.876;10.642;2023-04-04T02:00:44;6.75;;;2.85;;
39898;SDS011;25571;47.876;10.642;2023-04-04T02:03:10;4.47;;;2.60;;
39898;SDS011;25571;47.876;10.642;2023-04-04T02:05:35;5.15;;;2.50;;
39898;SDS011;25571;47.876;10.642;2023-04-04T02:08:01;6.35;;;2.92;;
39898;SDS011;25571;47.876;10.642;2023-04-04T02:10:27;2.83;;;2.50;;
39898;SDS011;25571;47.876;10.642;2023-04-04T02:12:53;2.78;;;2.25;;
39898;SDS011;25571;47.876;10.642;2023-04-04T02:15:19;4.47;;;3.38;;
39898;SDS011;25571;47.876;10.642;2023-04-04T02:17:48;3.35;;;2.50;;
39898;SDS011;25571;47.876;10.642;2023-04-04T02:20:14;4.63;;;2.33;;
39898;SDS011;25571;47.876;10.642;2023-04-04T02:22:40;5.00;;;2.20;;
39898;SDS011;25571;47.876;10.642;2023-04-04T02:27:34;4.05;;;2.50;;
39898;SDS011;25571;47.876;10.642;2023-04-04T02:29:59;4.18;;;2.58;;
39898;SDS011;25571;47.876;10.642;2023-04-04T02:32:25;4.53;;;2.42;;
39898;SDS011;25571;47.876;10.642;2023-04-04T02:34:51;2.97;;;2.35;;
39898;SDS011;25571;47.876;10.642;2023-04-04T02:37:16;3.42;;;2.45;;
39898;SDS011;25571;47.876;10.642;2023-04-04T02:39:42;3.05;;;2.40;;
39898;SDS011;25571;47.876;10.642;2023-04-04T02:42:08;2.55;;;2.30;;
39898;SDS011;25571;47.876;10.642;2023-04-04T02:44:33;3.53;;;1.90;;
39898;SDS011;25571;47.876;10.642;2023-04-04T02:46:59;4.55;;;2.28;;
39898;SDS011;25571;47.876;10.642;2023-04-04T02:49:25;3.25;;;2.40;;
39898;SDS011;25571;47.876;10.642;2023-04-04T02:51:52;3.25;;;2.35;;
39898;SDS011;25571;47.876;10.642;2023-04-04T02:54:18;3.92;;;2.35;;
39898;SDS011;25571;47.876;10.642;2023-04-04T02:56:44;3.20;;;2.45;;
39898;SDS011;25571;47.876;10.642;2023-04-04T02:59:09;2.78;;;2.00;;
39898;SDS011;25571;47.876;10.642;2023-04-04T03:01:35;3.17;;;2.47;;
39898;SDS011;25571;47.876;10.642;2023-04-04T03:04:00;6.65;;;2.85;;
39898;SDS011;25571;47.876;10.642;2023-04-04T03:06:30;3.90;;;2.50;;
39898;SDS011;25571;47.876;10.642;2023-04-04T03:08:57;4.78;;;2.92;;
39898;SDS011;25571;47.876;10.642;2023-04-04T03:11:22;3.53;;;2.55;;
39898;SDS011;25571;47.876;10.642;2023-04-04T03:13:48;4.70;;;2.47;;
39898;SDS011;25571;47.876;10.642;2023-04-04T03:16:15;4.32;;;2.85;;
39898;SDS011;25571;47.876;10.642;2023-04-04T03:18:43;2.72;;;2.10;;
39898;SDS011;25571;47.876;10.642;2023-04-04T03:21:09;3.35;;;2.60;;
39898;SDS011;25571;47.876;10.642;2023-04-04T03:23:34;2.83;;;2.40;;
39898;SDS011;25571;47.876;10.642;2023-04-04T03:26:00;3.63;;;2.40;;
39898;SDS011;25571;47.876;10.642;2023-04-04T03:28:26;3.70;;;2.72;;
39898;SDS011;25571;47.876;10.642;2023-04-04T03:30:51;4.65;;;2.50;;
39898;SDS011;25571;47.876;10.642;2023-04-04T03:33:17;3.38;;;2.63;;
39898;SDS011;25571;47.876;10.642;2023-04-04T03:35:43;2.85;;;2.22;;
39898;SDS011;25571;47.876;10.642;2023-04-04T03:38:09;4.43;;;2.65;;
39898;SDS011;25571;47.876;10.642;2023-04-04T03:40:35;3.95;;;2.45;;
39898;SDS011;25571;47.876;10.642;2023-04-04T03:43:01;2.67;;;2.42;;
39898;SDS011;25571;47.876;10.642;2023-04-04T03:45:27;3.60;;;2.45;;
39898;SDS011;25571;47.876;10.642;2023-04-04T03:47:56;5.40;;;2.72;;
39898;SDS011;25571;47.876;10.642;2023-04-04T03:50:22;4.68;;;2.95;;
39898;SDS011;25571;47.876;10.642;2023-04-04T03:52:47;5.00;;;2.60;;
39898;SDS011;25571;47.876;10.642;2023-04-04T03:55:13;3.08;;;2.42;;
39898;SDS011;25571;47.876;10.642;2023-04-04T03:57:39;3.40;;;2.42;;
39898;SDS011;25571;47.876;10.642;2023-04-04T04:00:04;4.72;;;2.33;;
39898;SDS011;25571;47.876;10.642;2023-04-04T04:02:31;2.72;;;2.00;;
39898;SDS011;25571;47.876;10.642;2023-04-04T04:04:56;5.20;;;2.80;;
39898;SDS011;25571;47.876;10.642;2023-04-04T04:07:22;4.53;;;2.45;;
39898;SDS011;25571;47.876;10.642;2023-04-04T04:09:47;4.05;;;2.30;;
39898;SDS011;25571;47.876;10.642;2023-04-04T04:12:13;4.75;;;2.53;;
39898;SDS011;25571;47.876;10.642;2023-04-04T04:14:39;3.83;;;2.25;;
39898;SDS011;25571;47.876;10.642;2023-04-04T04:17:04;3.92;;;2.30;;
39898;SDS011;25571;47.876;10.642;2023-04-04T04:19:30;5.05;;;2.25;;
39898;SDS011;25571;47.876;10.642;2023-04-04T04:21:56;4.85;;;3.17;;
39898;SDS011;25571;47.876;10.642;2023-04-04T04:24:21;7.00;;;3.13;;
39898;SDS011;25571;47.876;10.642;2023-04-04T04:26:47;4.80;;;3.42;;
39898;SDS011;25571;47.876;10.642;2023-04-04T04:29:13;4.72;;;3.60;;
39898;SDS011;25571;47.876;10.642;2023-04-04T04:31:38;3.95;;;2.58;;
39898;SDS011;25571;47.876;10.642;2023-04-04T04:34:05;2.95;;;2.40;;
39898;SDS011;25571;47.876;10.642;2023-04-04T04:36:32;3.88;;;2.88;;
39898;SDS011;25571;47.876;10.642;2023-04-04T04:38:58;3.50;;;2.30;;
39898;SDS011;25571;47.876;10.642;2023-04-04T04:41:24;5.03;;;2.70;;
39898;SDS011;25571;47.876;10.642;2023-04-04T04:43:50;2.95;;;2.42;;
39898;SDS011;25571;47.876;10.642;2023-04-04T04:46:16;3.03;;;2.40;;
39898;SDS011;25571;47.876;10.642;2023-04-04T04:48:42;2.65;;;2.35;;
39898;SDS011;25571;47.876;10.642;2023-04-04T04:51:07;3.33;;;2.20;;
39898;SDS011;25571;47.876;10.642;2023-04-04T04:53:33;2.92;;;2.15;;
39898;SDS011;25571;47.876;10.642;2023-04-04T04:55:58;6.40;;;4.00;;
39898;SDS011;25571;47.876;10.642;2023-04-04T04:58:24;7.97;;;5.88;;
39898;SDS011;25571;47.876;10.642;2023-04-04T05:00:53;7.40;;;4.60;;
39898;SDS011;25571;47.876;10.642;2023-04-04T05:03:20;4.78;;;3.92;;
39898;SDS011;25571;47.876;10.642;2023-04-04T05:05:46;7.75;;;5.28;;
39898;SDS011;25571;47.876;10.642;2023-04-04T05:08:12;6.45;;;4.20;;
39898;SDS011;25571;47.876;10.642;2023-04-04T05:10:38;5.95;;;3.33;;
39898;SDS011;25571;47.876;10.642;2023-04-04T05:13:03;3.53;;;2.63;;
39898;SDS011;25571;47.876;10.642;2023-04-04T05:15:29;4.40;;;2.80;;
39898;SDS011;25571;47.876;10.642;2023-04-04T05:17:56;3.65;;;2.60;;
39898;SDS011;25571;47.876;10.642;2023-04-04T05:20:22;4.00;;;2.65;;
39898;SDS011;25571;47.876;10.642;2023-04-04T05:22:47;8.10;;;3.25;;
39898;SDS011;25571;47.876;10.642;2023-04-04T05:25:13;4.40;;;3.10;;
39898;SDS011;25571;47.876;10.642;2023-04-04T05:27:39;8.60;;;3.45;;
39898;SDS011;25571;47.876;10.642;2023-04-04T05:30:05;4.15;;;3.00;;
39898;SDS011;25571;47.876;10.642;2023-04-04T05:32:34;5.90;;;2.92;;
39898;SDS011;25571;47.876;10.642;2023-04-04T05:35:00;3.13;;;2.60;;
39898;SDS011;25571;47.876;10.642;2023-04-04T05:37:26;4.68;;;2.80;;
39898;SDS011;25571;47.876;10.642;2023-04-04T05:39:52;3.60;;;2.55;;
39898;SDS011;25571;47.876;10.642;2023-04-04T05:42:17;3.03;;;2.63;;
39898;SDS011;25571;47.876;10.642;2023-04-04T05:44:43;6.28;;;2.78;;
39898;SDS011;25571;47.876;10.642;2023-04-04T05:47:09;5.43;;;3.20;;
39898;SDS011;25571;47.876;10.642;2023-04-04T05:49:34;4.88;;;3.10;;
39898;SDS011;25571;47.876;10.642;2023-04-04T05:52:00;5.30;;;3.15;;
39898;SDS011;25571;47.876;10.642;2023-04-04T05:54:26;4.90;;;4.00;;
39898;SDS011;25571;47.876;10.642;2023-04-04T05:56:53;5.28;;;3.20;;
39898;SDS011;25571;47.876;10.642;2023-04-04T05:59:20;4.05;;;3.15;;
39898;SDS011;25571;47.876;10.642;2023-04-04T06:01:46;5.32;;;2.88;;
39898;SDS011;25571;47.876;10.642;2023-04-04T06:04:11;6.85;;;3.20;;
39898;SDS011;25571;47.876;10.642;2023-04-04T06:06:37;5.68;;;2.97;;
39898;SDS011;25571;47.876;10.642;2023-04-04T06:09:03;3.80;;;2.50;;
39898;SDS011;25571;47.876;10.642;2023-04-04T06:11:28;4.40;;;3.20;;
39898;SDS011;25571;47.876;10.642;2023-04-04T06:13:54;5.25;;;2.80;;
39898;SDS011;25571;47.876;10.642;2023-04-04T06:16:20;4.18;;;2.30;;
39898;SDS011;25571;47.876;10.642;2023-04-04T06:18:46;6.10;;;2.65;;
39898;SDS011;25571;47.876;10.642;2023-04-04T06:21:12;4.75;;;2.50;;
39898;SDS011;25571;47.876;10.642;2023-04-04T06:23:38;6.80;;;2.67;;
39898;SDS011;25571;47.876;10.642;2023-04-04T06:26:04;3.15;;;2.05;;
39898;SDS011;25571;47.876;10.642;2023-04-04T06:28:30;6.18;;;2.75;;
39898;SDS011;25571;47.876;10.642;2023-04-04T06:30:56;5.65;;;2.92;;
39898;SDS011;25571;47.876;10.642;2023-04-04T06:33:22;7.10;;;3.22;;
39898;SDS011;25571;47.876;10.642;2023-04-04T06:35:47;6.40;;;4.80;;
39898;SDS011;25571;47.876;10.642;2023-04-04T06:38:13;4.28;;;2.97;;
39898;SDS011;25571;47.876;10.642;2023-04-04T06:40:39;4.55;;;2.83;;
39898;SDS011;25571;47.876;10.642;2023-04-04T06:43:04;3.35;;;2.30;;
39898;SDS011;25571;47.876;10.642;2023-04-04T06:45:30;4.72;;;3.22;;
39898;SDS011;25571;47.876;10.642;2023-04-04T06:47:57;4.45;;;2.45;;
39898;SDS011;25571;47.876;10.642;2023-04-04T06:50:23;6.00;;;2.17;;
39898;SDS011;25571;47.876;10.642;2023-04-04T06:52:49;3.53;;;2.50;;
39898;SDS011;25571;47.876;10.642;2023-04-04T06:55:16;2.85;;;2.28;;
39898;SDS011;25571;47.876;10.642;2023-04-04T06:57:42;5.15;;;2.53;;
39898;SDS011;25571;47.876;10.642;2023-04-04T07:00:08;2.58;;;2.10;;
39898;SDS011;25571;47.876;10.642;2023-04-04T07:02:34;4.68;;;2.85;;
39898;SDS011;25571;47.876;10.642;2023-04-04T07:05:00;4.78;;;3.10;;
39898;SDS011;25571;47.876;10.642;2023-04-04T07:07:27;3.58;;;2.70;;
39898;SDS011;25571;47.876;10.642;2023-04-04T07:09:54;4.60;;;2.85;;
39898;SDS011;25571;47.876;10.642;2023-04-04T07:12:19;3.63;;;2.42;;
39898;SDS011;25571;47.876;10.642;2023-04-04T07:14:45;5.68;;;2.50;;
39898;SDS011;25571;47.876;10.642;2023-04-04T07:17:11;6.28;;;2.90;;
39898;SDS011;25571;47.876;10.642;2023-04-04T07:19:37;3.60;;;2.58;;
39898;SDS011;25571;47.876;10.642;2023-04-04T07:22:02;4.18;;;2.60;;
39898;SDS011;25571;47.876;10.642;2023-04-04T07:24:28;3.40;;;2.70;;
39898;SDS011;25571;47.876;10.642;2023-04-04T07:26:53;4.70;;;2.42;;
39898;SDS011;25571;47.876;10.642;2023-04-04T07:29:19;3.45;;;2.80;;
39898;SDS011;25571;47.876;10.642;2023-04-04T07:31:46;4.45;;;2.65;;
39898;SDS011;25571;47.876;10.642;2023-04-04T07:34:11;6.45;;;3.30;;
39898;SDS011;25571;47.876;10.642;2023-04-04T07:36:37;4.10;;;2.47;;
39898;SDS011;25571;47.876;10.642;2023-04-04T07:39:03;4.18;;;2.83;;
39898;SDS011;25571;47.876;10.642;2023-04-04T07:41:28;4.47;;;2.65;;
39898;SDS011;25571;47.876;10.642;2023-04-04T07:43:54;4.22;;;2.55;;
39898;SDS011;25571;47.876;10.642;2023-04-04T07:46:20;4.30;;;2.50;;
39898;SDS011;25571;47.876;10.642;2023-04-04T07:48:46;4.18;;;2.22;;
39898;SDS011;25571;47.876;10.642;2023-04-04T07:51:12;3.10;;;1.77;;
39898;SDS011;25571;47.876;10.642;2023-04-04T07:53:38;2.08;;;1.70;;
39898;SDS011;25571;47.876;10.642;2023-04-04T07:56:03;3.15;;;1.85;;
39898;SDS011;25571;47.876;10.642;2023-04-04T07:58:32;3.15;;;1.75;;
39898;SDS011;25571;47.876;10.642;2023-04-04T08:00:59;1.70;;;1.60;;
39898;SDS011;25571;47.876;10.642;2023-04-04T08:03:25;2.63;;;1.80;;
39898;SDS011;25571;47.876;10.642;2023-04-04T08:05:51;2.88;;;1.90;;
39898;SDS011;25571;47.876;10.642;2023-04-04T08:08:16;3.20;;;2.08;;
39898;SDS011;25571;47.876;10.642;2023-04-04T08:10:43;3.42;;;1.80;;
39898;SDS011;25571;47.876;10.642;2023-04-04T08:13:09;2.03;;;1.50;;
39898;SDS011;25571;47.876;10.642;2023-04-04T08:15:35;1.90;;;1.58;;
39898;SDS011;25571;47.876;10.642;2023-04-04T08:18:01;2.00;;;1.55;;
39898;SDS011;25571;47.876;10.642;2023-04-04T08:20:27;1.77;;;1.50;;
39898;SDS011;25571;47.876;10.642;2023-04-04T08:22:53;2.00;;;1.40;;
39898;SDS011;25571;47.876;10.642;2023-04-04T08:25:18;3.83;;;1.40;;
39898;SDS011;25571;47.876;10.642;2023-04-04T08:27:44;1.73;;;1.20;;
39898;SDS011;25571;47.876;10.642;2023-04-04T08:30:10;2.65;;;1.70;;
39898;SDS011;25571;47.876;10.642;2023-04-04T08:32:37;3.90;;;1.70;;
39898;SDS011;25571;47.876;10.642;2023-04-04T08:35:03;1.95;;;1.25;;
39898;SDS011;25571;47.876;10.642;2023-04-04T08:37:29;1.95;;;1.42;;
39898;SDS011;25571;47.876;10.642;2023-04-04T08:39:55;2.90;;;1.60;;
39898;SDS011;25571;47.876;10.642;2023-04-04T08:42:21;2.13;;;1.40;;
39898;SDS011;25571;47.876;10.642;2023-04-04T08:44:48;1.42;;;1.20;;
39898;SDS011;25571;47.876;10.642;2023-04-04T08:47:17;1.70;;;1.30;;
39898;SDS011;25571;47.876;10.642;2023-04-04T08:49:45;2.28;;;1.58;;
39898;SDS011;25571;47.876;10.642;2023-04-04T08:54:39;2.22;;;1.60;;
39898;SDS011;25571;47.876;10.642;2023-04-04T08:57:07;1.88;;;1.50;;
39898;SDS011;25571;47.876;10.642;2023-04-04T08:59:33;2.40;;;1.20;;
39898;SDS011;25571;47.876;10.642;2023-04-04T09:02:22;2.00;;;1.30;;
39898;SDS011;25571;47.876;10.642;2023-04-04T09:04:53;1.30;;;1.10;;
39898;SDS011;25571;47.876;10.642;2023-04-04T09:07:20;1.83;;;1.37;;
39898;SDS011;25571;47.876;10.642;2023-04-04T09:09:46;1.73;;;1.20;;
39898;SDS011;25571;47.876;10.642;2023-04-04T09:12:13;1.25;;;1.10;;
39898;SDS011;25571;47.876;10.642;2023-04-04T09:14:40;1.58;;;1.20;;
39898;SDS011;25571;47.876;10.642;2023-04-04T09:17:07;2.92;;;1.33;;
39898;SDS011;25571;47.876;10.642;2023-04-04T09:19:34;1.08;;;0.98;;
39898;SDS011;25571;47.876;10.642;2023-04-04T09:22:07;1.35;;;1.08;;
39898;SDS011;25571;47.876;10.642;2023-04-04T09:24:39;1.33;;;1.02;;
39898;SDS011;25571;47.876;10.642;2023-04-04T09:27:06;1.45;;;1.23;;
39898;SDS011;25571;47.876;10.642;2023-04-04T09:29:39;1.52;;;1.40;;
39898;SDS011;25571;47.876;10.642;2023-04-04T09:32:09;1.35;;;1.00;;
39898;SDS011;25571;47.876;10.642;2023-04-04T09:34:38;2.17;;;1.48;;
39898;SDS011;25571;47.876;10.642;2023-04-04T09:37:04;1.38;;;1.08;;
39898;SDS011;25571;47.876;10.642;2023-04-04T09:39:31;2.08;;;1.35;;
39898;SDS011;25571;47.876;10.642;2023-04-04T09:41:57;1.38;;;1.25;;
39898;SDS011;25571;47.876;10.642;2023-04-04T09:44:24;3.05;;;1.42;;
39898;SDS011;25571;47.876;10.642;2023-04-04T09:46:53;1.90;;;1.70;;
39898;SDS011;25571;47.876;10.642;2023-04-04T09:49:46;2.35;;;1.50;;
39898;SDS011;25571;47.876;10.642;2023-04-04T09:52:22;1.83;;;1.40;;
39898;SDS011;25571;47.876;10.642;2023-04-04T09:54:57;1.40;;;1.30;;
39898;SDS011;25571;47.876;10.642;2023-04-04T09:57:33;3.22;;;1.70;;
39898;SDS011;25571;47.876;10.642;2023-04-04T10:00:03;2.45;;;1.90;;
39898;SDS011;25571;47.876;10.642;2023-04-04T10:02:38;3.47;;;1.70;;
39898;SDS011;25571;47.876;10.642;2023-04-04T10:05:10;2.28;;;1.60;;
39898;SDS011;25571;47.876;10.642;2023-04-04T10:07:37;2.42;;;1.95;;
39898;SDS011;25571;47.876;10.642;2023-04-04T10:10:04;3.80;;;1.92;;
39898;SDS011;25571;47.876;10.642;2023-04-04T10:12:30;3.05;;;2.17;;
39898;SDS011;25571;47.876;10.642;2023-04-04T10:14:57;2.53;;;1.80;;
39898;SDS011;25571;47.876;10.642;2023-04-04T10:17:24;3.05;;;1.92;;
39898;SDS011;25571;47.876;10.642;2023-04-04T10:19:56;2.30;;;2.10;;
39898;SDS011;25571;47.876;10.642;2023-04-04T10:22:25;2.20;;;1.83;;
39898;SDS011;25571;47.876;10.642;2023-04-04T10:24:51;2.35;;;1.90;;
39898;SDS011;25571;47.876;10.642;2023-04-04T10:27:18;2.80;;;1.92;;
39898;SDS011;25571;47.876;10.642;2023-04-04T10:29:44;2.20;;;1.75;;
39898;SDS011;25571;47.876;10.642;2023-04-04T10:32:12;3.58;;;2.13;;
39898;SDS011;25571;47.876;10.642;2023-04-04T10:35:06;2.40;;;2.17;;
39898;SDS011;25571;47.876;10.642;2023-04-04T10:37:46;2.17;;;1.98;;
39898;SDS011;25571;47.876;10.642;2023-04-04T10:40:19;3.10;;;2.10;;
39898;SDS011;25571;47.876;10.642;2023-04-04T10:45:14;3.20;;;2.58;;
39898;SDS011;25571;47.876;10.642;2023-04-04T10:47:41;2.65;;;2.45;;
39898;SDS011;25571;47.876;10.642;2023-04-04T10:50:09;3.85;;;2.25;;
39898;SDS011;25571;47.876;10.642;2023-04-04T10:52:36;2.38;;;2.13;;
39898;SDS011;25571;47.876;10.642;2023-04-04T10:55:07;4.72;;;2.50;;
39898;SDS011;25571;47.876;10.642;2023-04-04T11:00:06;3.63;;;2.30;;
39898;SDS011;25571;47.876;10.642;2023-04-04T11:05:10;3.30;;;2.40;;
39898;SDS011;25571;47.876;10.642;2023-04-04T11:07:39;3.42;;;2.70;;
39898;SDS011;25571;47.876;10.642;2023-04-04T11:10:15;3.35;;;2.47;;
39898;SDS011;25571;47.876;10.642;2023-04-04T11:12:54;3.87;;;2.43;;
39898;SDS011;25571;47.876;10.642;2023-04-04T11:15:23;2.95;;;2.13;;
39898;SDS011;25571;47.876;10.642;2023-04-04T11:17:51;5.10;;;2.83;;
39898;SDS011;25571;47.876;10.642;2023-04-04T11:20:28;4.25;;;2.35;;
39898;SDS011;25571;47.876;10.642;2023-04-04T11:23:00;5.07;;;2.70;;
39898;SDS011;25571;47.876;10.642;2023-04-04T11:27:57;4.53;;;3.05;;
39898;SDS011;25571;47.876;10.642;2023-04-04T11:30:27;4.43;;;2.60;;
39898;SDS011;25571;47.876;10.642;2023-04-04T11:32:57;3.65;;;2.35;;
39898;SDS011;25571;47.876;10.642;2023-04-04T11:35:25;4.53;;;2.85;;
39898;SDS011;25571;47.876;10.642;2023-04-04T11:40:20;2.63;;;2.35;;
39898;SDS011;25571;47.876;10.642;2023-04-04T11:42:58;3.00;;;2.38;;
39898;SDS011;25571;47.876;10.642;2023-04-04T11:45:28;4.07;;;2.50;;
39898;SDS011;25571;47.876;10.642;2023-04-04T11:47:55;4.13;;;2.75;;
39898;SDS011;25571;47.876;10.642;2023-04-04T11:50:22;3.30;;;3.00;;
39898;SDS011;25571;47.876;10.642;2023-04-04T11:52:48;4.00;;;2.40;;
39898;SDS011;25571;47.876;10.642;2023-04-04T11:55:18;4.43;;;2.50;;
39898;SDS011;25571;47.876;10.642;2023-04-04T11:57:45;3.42;;;2.60;;
39898;SDS011;25571;47.876;10.642;2023-04-04T12:00:26;5.40;;;2.85;;
39898;SDS011;25571;47.876;10.642;2023-04-04T12:02:55;5.45;;;2.80;;
39898;SDS011;25571;47.876;10.642;2023-04-04T12:05:22;3.88;;;2.95;;
39898;SDS011;25571;47.876;10.642;2023-04-04T12:07:48;4.00;;;3.00;;
39898;SDS011;25571;47.876;10.642;2023-04-04T12:10:15;3.72;;;2.25;;
39898;SDS011;25571;47.876;10.642;2023-04-04T12:12:41;3.70;;;2.28;;
39898;SDS011;25571;47.876;10.642;2023-04-04T12:15:09;4.82;;;3.08;;
39898;SDS011;25571;47.876;10.642;2023-04-04T12:20:04;4.55;;;3.00;;
39898;SDS011;25571;47.876;10.642;2023-04-04T12:22:34;5.32;;;2.67;;
39898;SDS011;25571;47.876;10.642;2023-04-04T12:25:00;3.67;;;2.58;;
39898;SDS011;25571;47.876;10.642;2023-04-04T12:27:26;3.40;;;2.83;;
39898;SDS011;25571;47.876;10.642;2023-04-04T12:29:54;3.53;;;3.08;;
39898;SDS011;25571;47.876;10.642;2023-04-04T12:32:20;6.60;;;3.40;;
39898;SDS011;25571;47.876;10.642;2023-04-04T12:34:47;5.57;;;3.17;;
39898;SDS011;25571;47.876;10.642;2023-04-04T12:37:12;4.88;;;3.15;;
39898;SDS011;25571;47.876;10.642;2023-04-04T12:39:45;3.90;;;3.05;;
39898;SDS011;25571;47.876;10.642;2023-04-04T12:42:23;3.85;;;2.90;;
39898;SDS011;25571;47.876;10.642;2023-04-04T12:44:49;5.45;;;3.30;;
39898;SDS011;25571;47.876;10.642;2023-04-04T12:47:16;3.90;;;3.15;;
39898;SDS011;25571;47.876;10.642;2023-04-04T12:49:44;4.60;;;2.90;;
39898;SDS011;25571;47.876;10.642;2023-04-04T12:52:17;5.40;;;3.30;;
39898;SDS011;25571;47.876;10.642;2023-04-04T12:54:44;3.72;;;2.92;;
39898;SDS011;25571;47.876;10.642;2023-04-04T12:57:16;3.90;;;2.85;;
39898;SDS011;25571;47.876;10.642;2023-04-04T12:59:44;4.03;;;2.78;;
39898;SDS011;25571;47.876;10.642;2023-04-04T13:02:15;4.35;;;3.03;;
39898;SDS011;25571;47.876;10.642;2023-04-04T13:04:45;4.40;;;2.83;;
39898;SDS011;25571;47.876;10.642;2023-04-04T13:07:21;3.08;;;2.40;;
39898;SDS011;25571;47.876;10.642;2023-04-04T13:09:52;5.60;;;3.22;;
39898;SDS011;25571;47.876;10.642;2023-04-04T13:12:22;4.53;;;3.00;;
39898;SDS011;25571;47.876;10.642;2023-04-04T13:17:24;4.15;;;2.97;;
39898;SDS011;25571;47.876;10.642;2023-04-04T13:19:51;4.63;;;3.10;;
39898;SDS011;25571;47.876;10.642;2023-04-04T13:22:16;5.22;;;3.20;;
39898;SDS011;25571;47.876;10.642;2023-04-04T13:24:42;6.65;;;3.38;;
39898;SDS011;25571;47.876;10.642;2023-04-04T13:27:08;4.63;;;3.22;;
39898;SDS011;25571;47.876;10.642;2023-04-04T13:29:33;4.65;;;2.92;;
39898;SDS011;25571;47.876;10.642;2023-04-04T13:31:59;5.70;;;3.28;;
39898;SDS011;25571;47.876;10.642;2023-04-04T13:34:26;5.47;;;3.60;;
39898;SDS011;25571;47.876;10.642;2023-04-04T13:36:52;4.05;;;2.83;;
39898;SDS011;25571;47.876;10.642;2023-04-04T13:39:17;3.42;;;3.05;;
39898;SDS011;25571;47.876;10.642;2023-04-04T13:41:43;4.97;;;3.10;;
39898;SDS011;25571;47.876;10.642;2023-04-04T13:44:09;5.65;;;3.30;;
39898;SDS011;25571;47.876;10.642;2023-04-04T13:46:37;5.10;;;3.53;;
39898;SDS011;25571;47.876;10.642;2023-04-04T13:49:02;5.32;;;3.30;;
39898;SDS011;25571;47.876;10.642;2023-04-04T13:51:28;5.03;;;3.00;;
39898;SDS011;25571;47.876;10.642;2023-04-04T13:53:53;4.72;;;3.25;;
39898;SDS011;25571;47.876;10.642;2023-04-04T13:56:19;3.53;;;2.90;;
39898;SDS011;25571;47.876;10.642;2023-04-04T13:58:45;3.67;;;3.30;;
39898;SDS011;25571;47.876;10.642;2023-04-04T14:01:11;3.65;;;2.92;;
39898;SDS011;25571;47.876;10.642;2023-04-04T14:03:37;4.10;;;3.00;;
39898;SDS011;25571;47.876;10.642;2023-04-04T14:06:03;5.63;;;3.47;;
39898;SDS011;25571;47.876;10.642;2023-04-04T14:08:28;3.55;;;3.08;;
39898;SDS011;25571;47.876;10.642;2023-04-04T14:10:54;3.58;;;3.28;;
39898;SDS011;25571;47.876;10.642;2023-04-04T14:13:20;6.82;;;3.83;;
39898;SDS011;25571;47.876;10.642;2023-04-04T14:15:46;6.10;;;3.90;;
39898;SDS011;25571;47.876;10.642;2023-04-04T14:18:13;4.20;;;3.00;;
39898;SDS011;25571;47.876;10.642;2023-04-04T14:20:39;4.35;;;3.28;;
39898;SDS011;25571;47.876;10.642;2023-04-04T14:23:05;4.45;;;3.80;;
39898;SDS011;25571;47.876;10.642;2023-04-04T14:25:31;4.97;;;3.50;;
39898;SDS011;25571;47.876;10.642;2023-04-04T14:27:56;4.20;;;3.42;;
39898;SDS011;25571;47.876;10.642;2023-04-04T14:30:22;4.68;;;3.42;;
39898;SDS011;25571;47.876;10.642;2023-04-04T14:32:47;4.65;;;3.30;;
39898;SDS011;25571;47.876;10.642;2023-04-04T14:35:15;5.93;;;3.80;;
39898;SDS011;25571;47.876;10.642;2023-04-04T14:37:41;5.10;;;3.60;;
39898;SDS011;25571;47.876;10.642;2023-04-04T14:40:07;5.57;;;4.28;;
39898;SDS011;25571;47.876;10.642;2023-04-04T14:42:33;8.82;;;3.88;;
39898;SDS011;25571;47.876;10.642;2023-04-04T14:44:59;4.22;;;3.15;;
39898;SDS011;25571;47.876;10.642;2023-04-04T14:47:29;5.75;;;3.30;;
39898;SDS011;25571;47.876;10.642;2023-04-04T14:49:55;4.78;;;3.60;;
39898;SDS011;25571;47.876;10.642;2023-04-04T14:52:20;4.68;;;3.65;;
39898;SDS011;25571;47.876;10.642;2023-04-04T14:54:46;6.95;;;3.80;;
39898;SDS011;25571;47.876;10.642;2023-04-04T14:57:11;5.60;;;3.42;;
39898;SDS011;25571;47.876;10.642;2023-04-04T14:59:37;6.63;;;4.30;;